sensor_id;sensor_type;location;lat;lon;timestamp;temperature;humidity
52903;DHT22;38765;53.176;7.090;2022-09-03T00:07:04;15.60;97.80
52903;DHT22;38765;53.176;7.090;2022-09-03T00:10:15;16.20;98.20
52903;DHT22;38765;53.176;7.090;2022-09-03T00:13:23;16.10;98.30
52903;DHT22;38765;53.176;7.090;2022-09-03T00:16:17;15.70;98.20
52903;DHT22;38765;53.176;7.090;2022-09-03T00:23:26;16.10;98.50
52903;DHT22;38765;53.176;7.090;2022-09-03T00:33:04;16.00;99.30
52903;DHT22;38765;53.176;7.090;2022-09-03T00:39:15;15.90;98.80
52903;DHT22;38765;53.176;7.090;2022-09-03T00:48:29;15.80;99.50
52903;DHT22;38765;53.176;7.090;2022-09-03T01:21:15;15.50;99.90
52903;DHT22;38765;53.176;7.090;2022-09-03T01:42:28;15.20;99.90
52903;DHT22;38765;53.176;7.090;2022-09-03T01:45:47;15.10;99.90
52903;DHT22;38765;53.176;7.090;2022-09-03T01:59:30;15.00;99.90
52903;DHT22;38765;53.176;7.090;2022-09-03T02:02:47;14.60;99.90
52903;DHT22;38765;53.176;7.090;2022-09-03T02:05:42;15.00;99.90
52903;DHT22;38765;53.176;7.090;2022-09-03T02:08:33;14.90;99.90
52903;DHT22;38765;53.176;7.090;2022-09-03T02:11:35;14.90;99.90
52903;DHT22;38765;53.176;7.090;2022-09-03T02:14:30;14.90;99.90
52903;DHT22;38765;53.176;7.090;2022-09-03T02:17:07;14.40;99.90
52903;DHT22;38765;53.176;7.090;2022-09-03T02:19:51;14.80;99.90
52903;DHT22;38765;53.176;7.090;2022-09-03T02:22:55;14.80;99.90
52903;DHT22;38765;53.176;7.090;2022-09-03T02:28:57;14.80;99.90
52903;DHT22;38765;53.176;7.090;2022-09-03T02:34:44;14.70;99.90
52903;DHT22;38765;53.176;7.090;2022-09-03T02:37:15;14.70;99.90
52903;DHT22;38765;53.176;7.090;2022-09-03T02:39:44;14.70;99.90
52903;DHT22;38765;53.176;7.090;2022-09-03T02:42:12;14.70;99.90
52903;DHT22;38765;53.176;7.090;2022-09-03T02:44:45;14.60;99.90
52903;DHT22;38765;53.176;7.090;2022-09-03T02:47:12;14.60;99.90
52903;DHT22;38765;53.176;7.090;2022-09-03T02:49:37;14.60;99.90
52903;DHT22;38765;53.176;7.090;2022-09-03T02:52:06;14.60;99.90
52903;DHT22;38765;53.176;7.090;2022-09-03T02:54:35;14.50;99.90
52903;DHT22;38765;53.176;7.090;2022-09-03T02:57:08;14.50;99.90
52903;DHT22;38765;53.176;7.090;2022-09-03T02:59:34;14.50;99.90
52903;DHT22;38765;53.176;7.090;2022-09-03T03:02:01;14.50;99.90
52903;DHT22;38765;53.176;7.090;2022-09-03T03:04:27;14.50;99.90
52903;DHT22;38765;53.176;7.090;2022-09-03T03:06:53;14.50;99.90
52903;DHT22;38765;53.176;7.090;2022-09-03T03:09:18;14.50;99.90
52903;DHT22;38765;53.176;7.090;2022-09-03T03:11:44;14.50;99.90
52903;DHT22;38765;53.176;7.090;2022-09-03T03:14:10;14.50;99.90
52903;DHT22;38765;53.176;7.090;2022-09-03T03:16:35;14.50;99.90
52903;DHT22;38765;53.176;7.090;2022-09-03T03:19:01;14.40;99.90
52903;DHT22;38765;53.176;7.090;2022-09-03T03:21:27;14.40;99.90
52903;DHT22;38765;53.176;7.090;2022-09-03T03:23:53;14.40;99.90
52903;DHT22;38765;53.176;7.090;2022-09-03T03:26:20;14.40;99.90
52903;DHT22;38765;53.176;7.090;2022-09-03T03:28:49;14.40;99.90
52903;DHT22;38765;53.176;7.090;2022-09-03T03:31:19;14.40;99.90
52903;DHT22;38765;53.176;7.090;2022-09-03T03:33:54;14.40;99.90
52903;DHT22;38765;53.176;7.090;2022-09-03T03:36:21;14.40;99.90
52903;DHT22;38765;53.176;7.090;2022-09-03T03:38:47;14.40;99.90
52903;DHT22;38765;53.176;7.090;2022-09-03T03:41:21;14.40;99.90
52903;DHT22;38765;53.176;7.090;2022-09-03T03:43:55;14.40;99.90
52903;DHT22;38765;53.176;7.090;2022-09-03T03:46:23;14.40;99.90
52903;DHT22;38765;53.176;7.090;2022-09-03T03:48:50;14.40;99.90
52903;DHT22;38765;53.176;7.090;2022-09-03T03:51:16;14.30;99.90
52903;DHT22;38765;53.176;7.090;2022-09-03T03:53:42;14.30;99.90
52903;DHT22;38765;53.176;7.090;2022-09-03T03:56:11;14.30;99.90
52903;DHT22;38765;53.176;7.090;2022-09-03T03:58:38;14.30;99.90
52903;DHT22;38765;53.176;7.090;2022-09-03T04:01:14;14.20;99.90
52903;DHT22;38765;53.176;7.090;2022-09-03T04:03:41;14.20;99.90
52903;DHT22;38765;53.176;7.090;2022-09-03T04:06:08;14.20;99.90
52903;DHT22;38765;53.176;7.090;2022-09-03T04:08:36;14.10;99.90
52903;DHT22;38765;53.176;7.090;2022-09-03T04:11:03;14.10;99.90
52903;DHT22;38765;53.176;7.090;2022-09-03T04:13:30;14.10;99.90
52903;DHT22;38765;53.176;7.090;2022-09-03T04:18:29;14.00;99.90
52903;DHT22;38765;53.176;7.090;2022-09-03T04:21:06;14.00;99.90
52903;DHT22;38765;53.176;7.090;2022-09-03T04:23:34;13.90;99.90
52903;DHT22;38765;53.176;7.090;2022-09-03T04:26:00;13.90;99.90
52903;DHT22;38765;53.176;7.090;2022-09-03T04:28:26;13.90;99.90
52903;DHT22;38765;53.176;7.090;2022-09-03T04:30:53;13.90;99.90
52903;DHT22;38765;53.176;7.090;2022-09-03T04:33:19;14.00;99.90
52903;DHT22;38765;53.176;7.090;2022-09-03T04:35:44;13.90;99.90
52903;DHT22;38765;53.176;7.090;2022-09-03T04:38:11;13.90;99.90
52903;DHT22;38765;53.176;7.090;2022-09-03T04:40:36;13.90;99.90
52903;DHT22;38765;53.176;7.090;2022-09-03T04:43:03;13.90;99.90
52903;DHT22;38765;53.176;7.090;2022-09-03T04:45:29;13.90;99.90
52903;DHT22;38765;53.176;7.090;2022-09-03T04:48:00;13.90;99.90
52903;DHT22;38765;53.176;7.090;2022-09-03T04:50:26;13.90;99.90
52903;DHT22;38765;53.176;7.090;2022-09-03T04:52:54;13.90;99.90
52903;DHT22;38765;53.176;7.090;2022-09-03T04:55:21;13.80;99.90
52903;DHT22;38765;53.176;7.090;2022-09-03T04:57:47;13.90;99.90
52903;DHT22;38765;53.176;7.090;2022-09-03T05:00:13;13.90;99.90
52903;DHT22;38765;53.176;7.090;2022-09-03T05:02:45;13.90;99.90
52903;DHT22;38765;53.176;7.090;2022-09-03T05:05:13;13.80;99.90
52903;DHT22;38765;53.176;7.090;2022-09-03T05:07:39;13.80;99.90
52903;DHT22;38765;53.176;7.090;2022-09-03T05:10:07;13.80;99.90
52903;DHT22;38765;53.176;7.090;2022-09-03T05:12:34;13.80;99.90
52903;DHT22;38765;53.176;7.090;2022-09-03T05:15:00;13.80;99.90
52903;DHT22;38765;53.176;7.090;2022-09-03T05:17:26;13.70;99.90
52903;DHT22;38765;53.176;7.090;2022-09-03T05:19:52;13.70;99.90
52903;DHT22;38765;53.176;7.090;2022-09-03T05:22:18;13.80;99.90
52903;DHT22;38765;53.176;7.090;2022-09-03T05:24:47;13.70;99.90
52903;DHT22;38765;53.176;7.090;2022-09-03T05:27:14;13.80;99.90
52903;DHT22;38765;53.176;7.090;2022-09-03T05:29:44;13.70;99.90
52903;DHT22;38765;53.176;7.090;2022-09-03T05:32:11;13.70;99.90
52903;DHT22;38765;53.176;7.090;2022-09-03T05:34:38;13.80;99.90
52903;DHT22;38765;53.176;7.090;2022-09-03T05:37:04;13.70;99.90
52903;DHT22;38765;53.176;7.090;2022-09-03T05:39:30;13.70;99.90
52903;DHT22;38765;53.176;7.090;2022-09-03T05:41:55;13.80;99.90
52903;DHT22;38765;53.176;7.090;2022-09-03T05:44:21;13.70;99.90
52903;DHT22;38765;53.176;7.090;2022-09-03T05:46:48;13.80;99.90
52903;DHT22;38765;53.176;7.090;2022-09-03T05:49:14;13.80;99.90
52903;DHT22;38765;53.176;7.090;2022-09-03T05:51:40;13.80;99.90
52903;DHT22;38765;53.176;7.090;2022-09-03T05:54:08;13.80;99.90
52903;DHT22;38765;53.176;7.090;2022-09-03T05:56:35;13.80;99.90
52903;DHT22;38765;53.176;7.090;2022-09-03T05:59:04;13.80;99.90
52903;DHT22;38765;53.176;7.090;2022-09-03T06:01:51;13.80;99.90
52903;DHT22;38765;53.176;7.090;2022-09-03T06:04:18;13.80;99.90
52903;DHT22;38765;53.176;7.090;2022-09-03T06:06:45;13.90;99.90
52903;DHT22;38765;53.176;7.090;2022-09-03T06:09:15;13.90;99.90
52903;DHT22;38765;53.176;7.090;2022-09-03T06:11:43;13.90;99.90
52903;DHT22;38765;53.176;7.090;2022-09-03T06:14:10;14.00;99.90
52903;DHT22;38765;53.176;7.090;2022-09-03T06:16:38;14.00;99.90
52903;DHT22;38765;53.176;7.090;2022-09-03T06:19:08;14.10;99.90
52903;DHT22;38765;53.176;7.090;2022-09-03T06:21:39;14.10;99.90
52903;DHT22;38765;53.176;7.090;2022-09-03T06:24:11;14.10;99.90
52903;DHT22;38765;53.176;7.090;2022-09-03T06:26:38;14.20;99.90
52903;DHT22;38765;53.176;7.090;2022-09-03T06:29:04;14.20;99.90
52903;DHT22;38765;53.176;7.090;2022-09-03T06:31:30;14.30;99.90
52903;DHT22;38765;53.176;7.090;2022-09-03T06:33:56;14.30;99.90
52903;DHT22;38765;53.176;7.090;2022-09-03T06:36:23;14.40;99.90
52903;DHT22;38765;53.176;7.090;2022-09-03T06:38:54;14.50;99.90
52903;DHT22;38765;53.176;7.090;2022-09-03T06:41:25;14.50;99.90
52903;DHT22;38765;53.176;7.090;2022-09-03T06:43:57;14.50;99.90
52903;DHT22;38765;53.176;7.090;2022-09-03T06:46:34;14.60;99.90
52903;DHT22;38765;53.176;7.090;2022-09-03T06:49:07;14.70;99.90
52903;DHT22;38765;53.176;7.090;2022-09-03T06:51:36;14.70;99.90
52903;DHT22;38765;53.176;7.090;2022-09-03T06:54:08;14.70;99.90
52903;DHT22;38765;53.176;7.090;2022-09-03T06:56:35;14.80;99.90
52903;DHT22;38765;53.176;7.090;2022-09-03T06:59:12;14.90;99.90
52903;DHT22;38765;53.176;7.090;2022-09-03T07:01:39;14.90;99.90
52903;DHT22;38765;53.176;7.090;2022-09-03T07:04:06;15.00;99.90
52903;DHT22;38765;53.176;7.090;2022-09-03T07:06:37;15.00;99.90
52903;DHT22;38765;53.176;7.090;2022-09-03T07:09:05;15.10;99.90
52903;DHT22;38765;53.176;7.090;2022-09-03T07:11:31;15.10;99.90
52903;DHT22;38765;53.176;7.090;2022-09-03T07:13:59;15.20;99.90
52903;DHT22;38765;53.176;7.090;2022-09-03T07:16:31;15.20;99.90
52903;DHT22;38765;53.176;7.090;2022-09-03T07:18:58;15.30;99.90
52903;DHT22;38765;53.176;7.090;2022-09-03T07:21:27;15.30;99.90
52903;DHT22;38765;53.176;7.090;2022-09-03T07:23:56;15.40;99.90
52903;DHT22;38765;53.176;7.090;2022-09-03T07:26:32;15.40;99.90
52903;DHT22;38765;53.176;7.090;2022-09-03T07:28:59;15.50;99.90
52903;DHT22;38765;53.176;7.090;2022-09-03T07:34:31;15.60;99.90
52903;DHT22;38765;53.176;7.090;2022-09-03T07:37:00;15.70;99.90
52903;DHT22;38765;53.176;7.090;2022-09-03T07:39:28;15.70;99.90
52903;DHT22;38765;53.176;7.090;2022-09-03T07:42:01;15.80;99.90
52903;DHT22;38765;53.176;7.090;2022-09-03T07:44:45;15.90;99.90
52903;DHT22;38765;53.176;7.090;2022-09-03T07:47:11;16.00;99.90
52903;DHT22;38765;53.176;7.090;2022-09-03T07:52:58;16.10;99.90
52903;DHT22;38765;53.176;7.090;2022-09-03T07:55:50;16.10;99.90
52903;DHT22;38765;53.176;7.090;2022-09-03T07:58:37;16.20;99.90
52903;DHT22;38765;53.176;7.090;2022-09-03T08:01:10;16.30;99.90
52903;DHT22;38765;53.176;7.090;2022-09-03T08:04:02;16.40;99.90
52903;DHT22;38765;53.176;7.090;2022-09-03T08:06:38;16.50;99.90
52903;DHT22;38765;53.176;7.090;2022-09-03T08:09:07;16.60;99.90
52903;DHT22;38765;53.176;7.090;2022-09-03T08:11:45;16.60;99.90
52903;DHT22;38765;53.176;7.090;2022-09-03T08:14:15;16.70;99.90
52903;DHT22;38765;53.176;7.090;2022-09-03T08:16:47;16.80;99.90
52903;DHT22;38765;53.176;7.090;2022-09-03T08:19:14;16.90;99.90
52903;DHT22;38765;53.176;7.090;2022-09-03T08:21:40;16.90;99.90
52903;DHT22;38765;53.176;7.090;2022-09-03T08:24:20;17.00;99.90
52903;DHT22;38765;53.176;7.090;2022-09-03T08:26:49;17.10;99.90
52903;DHT22;38765;53.176;7.090;2022-09-03T08:29:18;17.10;99.90
52903;DHT22;38765;53.176;7.090;2022-09-03T08:31:44;17.20;99.90
52903;DHT22;38765;53.176;7.090;2022-09-03T08:34:09;17.20;99.90
52903;DHT22;38765;53.176;7.090;2022-09-03T08:36:37;17.30;99.90
52903;DHT22;38765;53.176;7.090;2022-09-03T08:39:05;17.30;99.90
52903;DHT22;38765;53.176;7.090;2022-09-03T08:47:16;17.60;99.90
52903;DHT22;38765;53.176;7.090;2022-09-03T08:49:56;17.60;99.90
52903;DHT22;38765;53.176;7.090;2022-09-03T08:55:25;17.80;99.90
52903;DHT22;38765;53.176;7.090;2022-09-03T09:03:28;18.10;99.90
52903;DHT22;38765;53.176;7.090;2022-09-03T09:08:44;18.20;99.90
52903;DHT22;38765;53.176;7.090;2022-09-03T09:11:41;18.30;99.90
52903;DHT22;38765;53.176;7.090;2022-09-03T09:14:34;18.40;99.90
52903;DHT22;38765;53.176;7.090;2022-09-03T09:19:48;18.60;99.90
52903;DHT22;38765;53.176;7.090;2022-09-03T09:22:42;18.70;99.90
52903;DHT22;38765;53.176;7.090;2022-09-03T09:25:17;18.80;99.90
52903;DHT22;38765;53.176;7.090;2022-09-03T09:28:15;18.90;99.90
52903;DHT22;38765;53.176;7.090;2022-09-03T09:30:44;19.00;99.90
52903;DHT22;38765;53.176;7.090;2022-09-03T09:33:14;19.10;99.90
52903;DHT22;38765;53.176;7.090;2022-09-03T09:35:47;19.20;99.90
52903;DHT22;38765;53.176;7.090;2022-09-03T09:38:27;19.30;99.90
52903;DHT22;38765;53.176;7.090;2022-09-03T09:40:53;19.40;99.90
52903;DHT22;38765;53.176;7.090;2022-09-03T09:43:21;19.50;99.90
52903;DHT22;38765;53.176;7.090;2022-09-03T09:45:50;19.50;99.90
52903;DHT22;38765;53.176;7.090;2022-09-03T09:48:30;19.60;99.90
52903;DHT22;38765;53.176;7.090;2022-09-03T09:51:10;19.60;99.90
52903;DHT22;38765;53.176;7.090;2022-09-03T09:53:40;19.70;99.90
52903;DHT22;38765;53.176;7.090;2022-09-03T09:56:06;19.90;99.90
52903;DHT22;38765;53.176;7.090;2022-09-03T09:58:34;19.90;99.90
52903;DHT22;38765;53.176;7.090;2022-09-03T10:01:01;19.90;99.90
52903;DHT22;38765;53.176;7.090;2022-09-03T10:03:31;20.00;99.90
52903;DHT22;38765;53.176;7.090;2022-09-03T10:06:08;20.00;99.90
52903;DHT22;38765;53.176;7.090;2022-09-03T10:09:11;20.10;99.90
52903;DHT22;38765;53.176;7.090;2022-09-03T10:11:39;20.20;99.90
52903;DHT22;38765;53.176;7.090;2022-09-03T10:14:12;20.30;99.90
52903;DHT22;38765;53.176;7.090;2022-09-03T10:16:45;20.40;99.90
52903;DHT22;38765;53.176;7.090;2022-09-03T10:19:17;20.50;99.90
52903;DHT22;38765;53.176;7.090;2022-09-03T10:25:02;20.70;99.90
52903;DHT22;38765;53.176;7.090;2022-09-03T10:27:29;20.80;99.90
52903;DHT22;38765;53.176;7.090;2022-09-03T10:29:55;20.90;99.30
52903;DHT22;38765;53.176;7.090;2022-09-03T10:40:53;21.20;97.80
52903;DHT22;38765;53.176;7.090;2022-09-03T10:44:45;21.20;97.50
52903;DHT22;38765;53.176;7.090;2022-09-03T10:47:23;21.40;96.60
52903;DHT22;38765;53.176;7.090;2022-09-03T11:07:01;21.80;93.90
52903;DHT22;38765;53.176;7.090;2022-09-03T11:09:38;21.90;94.60
52903;DHT22;38765;53.176;7.090;2022-09-03T11:18:13;22.20;94.40
52903;DHT22;38765;53.176;7.090;2022-09-03T11:20:41;22.20;93.70
52903;DHT22;38765;53.176;7.090;2022-09-03T11:23:10;22.30;93.60
52903;DHT22;38765;53.176;7.090;2022-09-03T11:29:40;22.50;93.80
52903;DHT22;38765;53.176;7.090;2022-09-03T11:41:14;22.70;91.40
52903;DHT22;38765;53.176;7.090;2022-09-03T11:47:21;22.90;90.50
52903;DHT22;38765;53.176;7.090;2022-09-03T11:49:52;23.00;90.20
52903;DHT22;38765;53.176;7.090;2022-09-03T11:52:29;22.80;90.50
52903;DHT22;38765;53.176;7.090;2022-09-03T11:55:09;23.10;90.20
52903;DHT22;38765;53.176;7.090;2022-09-03T11:58:13;23.20;90.40
52903;DHT22;38765;53.176;7.090;2022-09-03T12:00:47;23.40;90.10
52903;DHT22;38765;53.176;7.090;2022-09-03T12:03:43;23.40;88.00
52903;DHT22;38765;53.176;7.090;2022-09-03T12:12:39;23.70;87.30
52903;DHT22;38765;53.176;7.090;2022-09-03T12:18:09;23.80;86.20
52903;DHT22;38765;53.176;7.090;2022-09-03T12:21:07;23.80;86.30
52903;DHT22;38765;53.176;7.090;2022-09-03T12:23:46;23.90;84.30
52903;DHT22;38765;53.176;7.090;2022-09-03T12:28:58;24.00;85.00
52903;DHT22;38765;53.176;7.090;2022-09-03T12:31:44;24.20;85.80
52903;DHT22;38765;53.176;7.090;2022-09-03T12:34:17;24.20;85.60
52903;DHT22;38765;53.176;7.090;2022-09-03T12:36:51;24.30;83.70
52903;DHT22;38765;53.176;7.090;2022-09-03T12:39:23;24.20;83.60
52903;DHT22;38765;53.176;7.090;2022-09-03T12:41:57;24.30;84.80
52903;DHT22;38765;53.176;7.090;2022-09-03T12:44:37;24.30;82.40
52903;DHT22;38765;53.176;7.090;2022-09-03T12:47:15;24.30;83.50
52903;DHT22;38765;53.176;7.090;2022-09-03T12:49:55;24.30;82.50
52903;DHT22;38765;53.176;7.090;2022-09-03T12:58:31;24.50;82.50
52903;DHT22;38765;53.176;7.090;2022-09-03T13:01:42;24.60;82.60
52903;DHT22;38765;53.176;7.090;2022-09-03T13:04:32;24.70;80.50
52903;DHT22;38765;53.176;7.090;2022-09-03T13:07:22;24.70;80.40
52903;DHT22;38765;53.176;7.090;2022-09-03T13:09:59;24.70;81.80
52903;DHT22;38765;53.176;7.090;2022-09-03T13:12:32;24.80;81.40
52903;DHT22;38765;53.176;7.090;2022-09-03T13:15:09;24.80;81.80
52903;DHT22;38765;53.176;7.090;2022-09-03T13:18:16;24.90;79.80
52903;DHT22;38765;53.176;7.090;2022-09-03T13:32:01;25.10;80.30
52903;DHT22;38765;53.176;7.090;2022-09-03T13:34:56;25.10;78.80
52903;DHT22;38765;53.176;7.090;2022-09-03T13:37:36;25.10;78.60
52903;DHT22;38765;53.176;7.090;2022-09-03T13:43:04;25.20;78.20
52903;DHT22;38765;53.176;7.090;2022-09-03T13:45:53;25.20;74.50
52903;DHT22;38765;53.176;7.090;2022-09-03T13:48:24;25.30;77.80
52903;DHT22;38765;53.176;7.090;2022-09-03T13:51:46;25.40;77.90
52903;DHT22;38765;53.176;7.090;2022-09-03T13:54:30;25.50;79.40
52903;DHT22;38765;53.176;7.090;2022-09-03T13:57:31;25.50;75.80
52903;DHT22;38765;53.176;7.090;2022-09-03T14:00:05;25.50;76.80
52903;DHT22;38765;53.176;7.090;2022-09-03T14:08:58;25.70;77.20
52903;DHT22;38765;53.176;7.090;2022-09-03T14:11:34;25.80;78.20
52903;DHT22;38765;53.176;7.090;2022-09-03T14:17:03;25.80;77.10
52903;DHT22;38765;53.176;7.090;2022-09-03T14:20:05;25.80;76.40
52903;DHT22;38765;53.176;7.090;2022-09-03T14:22:43;25.90;76.90
52903;DHT22;38765;53.176;7.090;2022-09-03T14:25:19;25.90;76.20
52903;DHT22;38765;53.176;7.090;2022-09-03T14:27:48;25.90;76.00
52903;DHT22;38765;53.176;7.090;2022-09-03T14:30:27;26.00;76.70
52903;DHT22;38765;53.176;7.090;2022-09-03T14:36:27;26.00;75.10
52903;DHT22;38765;53.176;7.090;2022-09-03T14:39:22;26.00;76.50
52903;DHT22;38765;53.176;7.090;2022-09-03T14:52:51;26.10;76.70
52903;DHT22;38765;53.176;7.090;2022-09-03T15:00:52;26.10;75.20
52903;DHT22;38765;53.176;7.090;2022-09-03T15:03:43;26.00;74.30
52903;DHT22;38765;53.176;7.090;2022-09-03T15:11:58;26.00;74.70
52903;DHT22;38765;53.176;7.090;2022-09-03T15:14:37;26.00;75.50
52903;DHT22;38765;53.176;7.090;2022-09-03T15:19:38;25.80;75.00
52903;DHT22;38765;53.176;7.090;2022-09-03T15:22:30;25.80;75.00
52903;DHT22;38765;53.176;7.090;2022-09-03T15:30:58;26.00;75.50
52903;DHT22;38765;53.176;7.090;2022-09-03T15:36:27;25.90;74.50
52903;DHT22;38765;53.176;7.090;2022-09-03T15:39:03;25.90;74.70
52903;DHT22;38765;53.176;7.090;2022-09-03T15:44:07;26.00;74.60
52903;DHT22;38765;53.176;7.090;2022-09-03T15:46:57;26.00;74.70
52903;DHT22;38765;53.176;7.090;2022-09-03T15:49:51;26.00;74.00
52903;DHT22;38765;53.176;7.090;2022-09-03T15:55:14;26.00;74.80
52903;DHT22;38765;53.176;7.090;2022-09-03T15:58:05;26.00;73.50
52903;DHT22;38765;53.176;7.090;2022-09-03T16:00:47;26.00;74.30
52903;DHT22;38765;53.176;7.090;2022-09-03T16:03:34;25.90;73.60
52903;DHT22;38765;53.176;7.090;2022-09-03T16:06:06;25.90;73.10
52903;DHT22;38765;53.176;7.090;2022-09-03T16:14:37;25.70;73.70
52903;DHT22;38765;53.176;7.090;2022-09-03T16:17:35;25.70;74.40
52903;DHT22;38765;53.176;7.090;2022-09-03T16:20:31;25.60;73.40
52903;DHT22;38765;53.176;7.090;2022-09-03T16:23:35;25.60;74.10
52903;DHT22;38765;53.176;7.090;2022-09-03T16:28:42;25.50;74.70
52903;DHT22;38765;53.176;7.090;2022-09-03T16:42:19;25.00;74.90
52903;DHT22;38765;53.176;7.090;2022-09-03T16:53:49;24.70;74.80
52903;DHT22;38765;53.176;7.090;2022-09-03T17:10:44;24.00;75.90
52903;DHT22;38765;53.176;7.090;2022-09-03T17:19:01;23.70;76.30
52903;DHT22;38765;53.176;7.090;2022-09-03T17:22:36;23.60;76.60
52903;DHT22;38765;53.176;7.090;2022-09-03T17:24:40;23.50;76.90
52903;DHT22;38765;53.176;7.090;2022-09-03T17:27:25;23.40;76.60
52903;DHT22;38765;53.176;7.090;2022-09-03T17:30:15;23.30;76.50
52903;DHT22;38765;53.176;7.090;2022-09-03T17:33:16;23.30;77.00
52903;DHT22;38765;53.176;7.090;2022-09-03T17:36:21;23.20;77.10
52903;DHT22;38765;53.176;7.090;2022-09-03T17:44:39;23.00;77.50
52903;DHT22;38765;53.176;7.090;2022-09-03T17:50:06;22.80;78.30
52903;DHT22;38765;53.176;7.090;2022-09-03T17:52:43;22.80;77.80
52903;DHT22;38765;53.176;7.090;2022-09-03T17:55:33;22.70;77.80
52903;DHT22;38765;53.176;7.090;2022-09-03T17:58:18;22.60;77.70
52903;DHT22;38765;53.176;7.090;2022-09-03T18:06:10;22.40;78.20
52903;DHT22;38765;53.176;7.090;2022-09-03T18:08:51;22.40;78.40
52903;DHT22;38765;53.176;7.090;2022-09-03T18:11:37;22.30;78.30
52903;DHT22;38765;53.176;7.090;2022-09-03T18:16:49;22.10;78.70
52903;DHT22;38765;53.176;7.090;2022-09-03T18:19:47;22.10;79.00
52903;DHT22;38765;53.176;7.090;2022-09-03T18:22:41;22.00;78.80
52903;DHT22;38765;53.176;7.090;2022-09-03T18:25:34;22.00;78.60
52903;DHT22;38765;53.176;7.090;2022-09-03T18:28:28;21.90;79.30
52903;DHT22;38765;53.176;7.090;2022-09-03T18:31:15;21.80;79.30
52903;DHT22;38765;53.176;7.090;2022-09-03T18:34:02;21.80;79.30
52903;DHT22;38765;53.176;7.090;2022-09-03T18:36:46;21.70;79.60
52903;DHT22;38765;53.176;7.090;2022-09-03T18:39:31;21.60;79.30
52903;DHT22;38765;53.176;7.090;2022-09-03T18:45:38;21.50;79.50
52903;DHT22;38765;53.176;7.090;2022-09-03T18:48:36;21.40;79.40
52903;DHT22;38765;53.176;7.090;2022-09-03T18:57:19;21.20;79.80
52903;DHT22;38765;53.176;7.090;2022-09-03T19:00:15;21.10;80.00
52903;DHT22;38765;53.176;7.090;2022-09-03T19:08:47;21.00;80.40
52903;DHT22;38765;53.176;7.090;2022-09-03T19:18:24;20.80;80.60
52903;DHT22;38765;53.176;7.090;2022-09-03T19:24:01;20.80;80.80
52903;DHT22;38765;53.176;7.090;2022-09-03T19:30:05;20.60;80.90
52903;DHT22;38765;53.176;7.090;2022-09-03T19:33:15;20.50;80.90
52903;DHT22;38765;53.176;7.090;2022-09-03T19:45:07;20.20;82.00
52903;DHT22;38765;53.176;7.090;2022-09-03T19:48:05;20.10;81.90
52903;DHT22;38765;53.176;7.090;2022-09-03T19:51:29;20.00;82.10
52903;DHT22;38765;53.176;7.090;2022-09-03T19:54:18;20.00;82.30
52903;DHT22;38765;53.176;7.090;2022-09-03T19:57:05;20.00;82.50
52903;DHT22;38765;53.176;7.090;2022-09-03T19:59:49;19.90;82.80
52903;DHT22;38765;53.176;7.090;2022-09-03T20:02:36;19.90;83.10
52903;DHT22;38765;53.176;7.090;2022-09-03T20:05:22;19.80;83.20
52903;DHT22;38765;53.176;7.090;2022-09-03T20:08:10;19.80;83.30
52903;DHT22;38765;53.176;7.090;2022-09-03T20:10:56;19.70;83.60
52903;DHT22;38765;53.176;7.090;2022-09-03T20:13:23;19.70;83.80
52903;DHT22;38765;53.176;7.090;2022-09-03T20:16:11;19.60;83.80
52903;DHT22;38765;53.176;7.090;2022-09-03T20:19:15;19.60;84.00
52903;DHT22;38765;53.176;7.090;2022-09-03T20:21:50;19.60;84.40
52903;DHT22;38765;53.176;7.090;2022-09-03T20:24:39;19.60;84.50
52903;DHT22;38765;53.176;7.090;2022-09-03T20:32:41;19.50;84.90
52903;DHT22;38765;53.176;7.090;2022-09-03T20:38:26;19.50;85.40
52903;DHT22;38765;53.176;7.090;2022-09-03T20:46:37;19.50;85.10
52903;DHT22;38765;53.176;7.090;2022-09-03T20:52:15;19.40;84.80
52903;DHT22;38765;53.176;7.090;2022-09-03T21:00:06;19.40;84.90
52903;DHT22;38765;53.176;7.090;2022-09-03T21:03:08;19.40;85.30
52903;DHT22;38765;53.176;7.090;2022-09-03T21:06:16;19.40;85.40
52903;DHT22;38765;53.176;7.090;2022-09-03T21:09:08;19.30;85.20
52903;DHT22;38765;53.176;7.090;2022-09-03T21:14:52;19.30;85.30
52903;DHT22;38765;53.176;7.090;2022-09-03T21:25:30;19.10;85.50
52903;DHT22;38765;53.176;7.090;2022-09-03T21:28:32;19.00;86.00
52903;DHT22;38765;53.176;7.090;2022-09-03T21:31:08;19.00;86.10
52903;DHT22;38765;53.176;7.090;2022-09-03T21:33:37;18.90;86.20
52903;DHT22;38765;53.176;7.090;2022-09-03T21:42:11;18.70;87.00
52903;DHT22;38765;53.176;7.090;2022-09-03T21:44:59;18.70;87.20
52903;DHT22;38765;53.176;7.090;2022-09-03T21:47:32;18.60;87.20
52903;DHT22;38765;53.176;7.090;2022-09-03T21:50:20;18.50;87.60
52903;DHT22;38765;53.176;7.090;2022-09-03T21:52:54;18.50;87.30
52903;DHT22;38765;53.176;7.090;2022-09-03T21:56:08;18.40;87.70
52903;DHT22;38765;53.176;7.090;2022-09-03T22:01:35;18.30;88.20
52903;DHT22;38765;53.176;7.090;2022-09-03T22:04:12;18.20;88.80
52903;DHT22;38765;53.176;7.090;2022-09-03T22:10:23;18.20;89.00
52903;DHT22;38765;53.176;7.090;2022-09-03T22:15:47;18.10;88.90
52903;DHT22;38765;53.176;7.090;2022-09-03T22:18:21;18.00;89.20
52903;DHT22;38765;53.176;7.090;2022-09-03T22:26:50;17.90;89.40
52903;DHT22;38765;53.176;7.090;2022-09-03T22:29:34;17.90;89.40
52903;DHT22;38765;53.176;7.090;2022-09-03T22:32:07;17.80;89.50
52903;DHT22;38765;53.176;7.090;2022-09-03T22:40:49;17.70;90.00
52903;DHT22;38765;53.176;7.090;2022-09-03T22:44:02;17.60;90.40
52903;DHT22;38765;53.176;7.090;2022-09-03T22:46:43;17.50;90.30
52903;DHT22;38765;53.176;7.090;2022-09-03T22:57:06;17.40;90.40
52903;DHT22;38765;53.176;7.090;2022-09-03T22:59:37;17.30;90.80
52903;DHT22;38765;53.176;7.090;2022-09-03T23:02:22;17.30;90.90
52903;DHT22;38765;53.176;7.090;2022-09-03T23:05:09;17.20;91.00
52903;DHT22;38765;53.176;7.090;2022-09-03T23:08:12;17.20;90.80
52903;DHT22;38765;53.176;7.090;2022-09-03T23:13:37;17.10;91.00
52903;DHT22;38765;53.176;7.090;2022-09-03T23:18:52;17.00;91.40
52903;DHT22;38765;53.176;7.090;2022-09-03T23:21:22;16.90;91.40
52903;DHT22;38765;53.176;7.090;2022-09-03T23:24:04;16.90;91.30
52903;DHT22;38765;53.176;7.090;2022-09-03T23:26:45;16.90;91.60
52903;DHT22;38765;53.176;7.090;2022-09-03T23:29:29;16.90;91.70
52903;DHT22;38765;53.176;7.090;2022-09-03T23:31:58;16.90;91.40
52903;DHT22;38765;53.176;7.090;2022-09-03T23:34:26;16.90;91.50
52903;DHT22;38765;53.176;7.090;2022-09-03T23:47:53;16.30;91.80
52903;DHT22;38765;53.176;7.090;2022-09-03T23:53:31;16.70;92.10
52903;DHT22;38765;53.176;7.090;2022-09-03T23:56:16;16.70;92.00
52903;DHT22;38765;53.176;7.090;2022-09-03T23:59:24;16.70;92.00
